Lovelady, Texas
Current Conditions -  °F | °C
As of 11:55 AM on Friday 21 Nov 2014 (Local Time) from KDKR Reporting Station
Heavy Rain Heavy Rain  
Wind Chill: 64°   Ceiling: 200
Heat Index: 64°   Visibility: 0.75mi
Dew Point: 64°   Wind: 5mph
Humidity: 100%   Direction: 240°WSW
Pressure: 30.19"   Gusts: NA
Location:  31.13°N, 95.45°W
Report Text: KDKR 211755Z AUTO 24004KT 3/4SM +RA OVC002 18/18 A3019 RMK AO2 P0032
Loading
Personal Weather Stations






























Interactive Weather Map New forecast layout! Learn more

10-Day Weather Forecast

Advertisements
Track Severe Weather on mobile